createdAt,value
2023-03-16T00:00:09.701Z,89.30
2023-03-16T00:02:37.580Z,90.30
2023-03-16T00:05:06.059Z,90.66
2023-03-16T00:07:35.585Z,90.20
2023-03-16T00:10:03.806Z,89.12
2023-03-16T00:12:34.709Z,88.87
2023-03-16T00:15:04.636Z,90.08
2023-03-16T00:17:32.699Z,90.96
2023-03-16T00:20:06.550Z,91.31
2023-03-16T00:22:35.927Z,91.75
2023-03-16T00:25:04.609Z,92.08
2023-03-16T00:27:32.632Z,90.84
2023-03-16T00:30:03.573Z,89.17
2023-03-16T00:32:34.018Z,90.78
2023-03-16T00:35:03.002Z,90.68
2023-03-16T00:37:32.734Z,89.96
2023-03-16T00:40:08.029Z,89.69
2023-03-16T00:42:35.961Z,88.81
2023-03-16T00:45:05.878Z,90.15
2023-03-16T00:47:36.009Z,90.57
2023-03-16T00:50:04.204Z,89.89
2023-03-16T00:52:32.431Z,89.78
2023-03-16T00:55:00.413Z,88.84
2023-03-16T00:57:32.774Z,87.57
2023-03-16T01:00:04.488Z,89.00
2023-03-16T01:02:32.576Z,88.85
2023-03-16T01:05:00.403Z,87.74
2023-03-16T01:07:28.269Z,87.53
2023-03-16T01:09:59.017Z,87.64
2023-03-16T01:12:27.926Z,86.62
2023-03-16T01:14:57.626Z,86.34
2023-03-16T01:17:27.467Z,89.62
2023-03-16T01:19:57.531Z,89.92
2023-03-16T01:22:25.510Z,89.61
2023-03-16T01:24:53.479Z,89.17
2023-03-16T01:27:26.293Z,88.90
2023-03-16T01:29:54.453Z,88.31
2023-03-16T01:32:23.829Z,88.09
2023-03-16T01:34:51.747Z,87.80
2023-03-16T01:37:20.499Z,87.79
2023-03-16T01:39:59.040Z,85.94
2023-03-16T01:42:27.033Z,86.15
2023-03-16T01:44:57.963Z,86.40
2023-03-16T01:47:38.007Z,86.10
2023-03-16T01:50:08.246Z,86.60
2023-03-16T01:52:40.607Z,87.04
2023-03-16T01:55:13.642Z,87.55
2023-03-16T01:57:45.341Z,86.53
2023-03-16T02:00:19.382Z,87.37
2023-03-16T02:03:13.704Z,86.83
2023-03-16T02:05:53.177Z,88.47
2023-03-16T02:08:23.950Z,89.20
2023-03-16T02:10:54.742Z,89.90
2023-03-16T02:13:25.755Z,91.22
2023-03-16T02:15:54.667Z,91.88
2023-03-16T02:18:24.059Z,91.40
2023-03-16T02:20:57.570Z,92.58
2023-03-16T02:23:28.739Z,92.92
2023-03-16T02:26:05.371Z,92.31
2023-03-16T02:28:48.040Z,93.35
2023-03-16T02:31:19.106Z,92.67
2023-03-16T02:33:50.827Z,93.65
2023-03-16T02:36:22.145Z,93.07
2023-03-16T02:38:50.314Z,92.96
2023-03-16T02:41:21.228Z,92.05
2023-03-16T02:43:59.262Z,92.17
2023-03-16T02:46:35.885Z,91.42
2023-03-16T02:49:08.541Z,91.14
2023-03-16T02:51:37.994Z,91.69
2023-03-16T02:54:05.858Z,91.57
2023-03-16T02:56:35.878Z,92.51
2023-03-16T02:59:03.852Z,92.64
2023-03-16T03:01:36.698Z,92.49
2023-03-16T03:04:06.146Z,91.77
2023-03-16T03:06:34.432Z,91.19
2023-03-16T03:09:05.226Z,91.45
2023-03-16T03:11:33.422Z,92.22
2023-03-16T03:14:01.450Z,91.58
2023-03-16T03:16:32.766Z,92.73
2023-03-16T03:19:02.587Z,92.59
2023-03-16T03:21:35.858Z,92.62
2023-03-16T03:24:03.808Z,92.28
2023-03-16T03:26:31.806Z,92.67
2023-03-16T03:29:02.474Z,92.60
2023-03-16T03:31:30.576Z,92.16
2023-03-16T03:33:59.520Z,91.29
2023-03-16T03:36:28.892Z,91.34
2023-03-16T03:38:56.857Z,92.21
2023-03-16T03:41:25.023Z,92.44
2023-03-16T03:43:54.675Z,92.59
2023-03-16T03:46:22.757Z,92.04
2023-03-16T03:48:51.369Z,91.63
2023-03-16T03:51:19.360Z,91.68
2023-03-16T03:53:57.334Z,91.78
2023-03-16T03:56:37.597Z,91.36
2023-03-16T03:59:10.159Z,92.95
2023-03-16T04:01:58.220Z,91.83
2023-03-16T04:04:31.368Z,92.20
2023-03-16T04:06:59.284Z,92.00
2023-03-16T04:09:29.880Z,91.44
2023-03-16T04:11:58.658Z,89.79
2023-03-16T04:14:27.187Z,89.50
2023-03-16T04:16:55.052Z,88.82
2023-03-16T04:19:23.663Z,88.87
2023-03-16T04:21:53.506Z,88.70
2023-03-16T04:24:22.329Z,87.86
2023-03-16T04:26:51.613Z,87.51
2023-03-16T04:29:19.549Z,87.06
2023-03-16T04:31:48.165Z,88.33
2023-03-16T04:34:16.429Z,88.35
2023-03-16T04:36:44.384Z,89.03
2023-03-16T04:39:12.298Z,89.26
2023-03-16T04:41:40.197Z,89.81
2023-03-16T04:44:17.462Z,89.65
2023-03-16T04:46:45.456Z,88.96
2023-03-16T04:49:14.103Z,89.65
2023-03-16T04:51:45.300Z,89.42
2023-03-16T04:54:19.483Z,89.02
2023-03-16T04:56:47.391Z,89.66
2023-03-16T04:59:29.663Z,88.85
2023-03-16T05:02:12.161Z,91.32
2023-03-16T05:04:42.483Z,90.54
2023-03-16T05:07:12.796Z,91.35
2023-03-16T05:09:44.353Z,91.95
2023-03-16T05:12:12.836Z,91.59
2023-03-16T05:14:42.526Z,90.53
2023-03-16T05:17:23.631Z,91.69
2023-03-16T05:19:51.813Z,91.94
2023-03-16T05:22:21.229Z,91.67
2023-03-16T05:25:15.098Z,91.06
2023-03-16T05:27:46.682Z,91.22
2023-03-16T05:30:21.841Z,91.01
2023-03-16T05:32:51.229Z,91.34
2023-03-16T05:35:19.511Z,91.62
2023-03-16T05:37:47.915Z,89.93
2023-03-16T05:40:22.861Z,89.97
2023-03-16T05:43:00.429Z,90.23
2023-03-16T05:45:31.254Z,89.23
2023-03-16T05:48:07.630Z,88.51
2023-03-16T05:50:39.940Z,87.98
2023-03-16T05:53:09.074Z,87.87
2023-03-16T05:55:39.571Z,88.09
2023-03-16T05:58:11.842Z,88.33
2023-03-16T06:00:43.321Z,88.21
2023-03-16T06:03:26.069Z,87.96
2023-03-16T06:05:55.514Z,87.55
2023-03-16T06:08:33.865Z,87.32
2023-03-16T06:11:09.448Z,86.84
2023-03-16T06:13:37.673Z,86.42
2023-03-16T06:16:08.153Z,88.42
2023-03-16T06:18:37.107Z,87.71
2023-03-16T06:21:05.897Z,88.02
2023-03-16T06:23:35.669Z,87.32
2023-03-16T06:26:40.562Z,87.79
2023-03-16T06:29:20.536Z,90.35
2023-03-16T06:31:51.320Z,89.93
2023-03-16T06:34:19.897Z,89.79
2023-03-16T06:36:48.351Z,89.90
2023-03-16T06:39:16.371Z,90.81
2023-03-16T06:41:48.310Z,89.79
2023-03-16T06:44:18.060Z,88.77
2023-03-16T06:46:56.805Z,88.46
2023-03-16T06:49:24.864Z,89.04
2023-03-16T06:51:53.760Z,89.81
2023-03-16T06:54:24.939Z,88.49
2023-03-16T06:56:55.401Z,88.71
2023-03-16T06:59:23.393Z,87.47
2023-03-16T07:01:51.922Z,86.66
2023-03-16T07:04:21.766Z,85.54
2023-03-16T07:06:52.382Z,84.88
2023-03-16T07:09:21.920Z,83.75
2023-03-16T07:11:49.927Z,85.33
2023-03-16T07:14:19.627Z,84.58
2023-03-16T07:16:51.024Z,84.64
2023-03-16T07:19:19.040Z,83.50
2023-03-16T07:21:48.294Z,83.63
2023-03-16T07:24:19.536Z,83.32
2023-03-16T07:26:47.771Z,82.81
2023-03-16T07:29:24.673Z,81.40
2023-03-16T07:31:53.541Z,80.43
2023-03-16T07:34:24.887Z,79.31
2023-03-16T07:36:58.776Z,79.85
2023-03-16T07:39:29.856Z,77.75
2023-03-16T07:42:05.248Z,79.43
2023-03-16T07:44:46.551Z,78.73
2023-03-16T07:47:14.629Z,78.71
2023-03-16T07:49:44.378Z,81.42
2023-03-16T07:52:13.932Z,80.86
2023-03-16T07:54:43.435Z,76.57
2023-03-16T07:57:12.991Z,75.85
2023-03-16T07:59:43.970Z,77.49
2023-03-16T08:02:15.673Z,76.14
2023-03-16T08:04:44.685Z,76.58
2023-03-16T08:07:17.421Z,74.74
2023-03-16T08:10:12.644Z,72.82
2023-03-16T08:12:46.653Z,71.40
2023-03-16T08:15:15.622Z,72.31
2023-03-16T08:17:45.592Z,67.61
2023-03-16T08:20:19.413Z,69.90
2023-03-16T08:22:51.270Z,70.67
2023-03-16T08:25:24.332Z,66.71
2023-03-16T08:28:00.049Z,66.37
2023-03-16T08:30:28.291Z,68.33
2023-03-16T08:33:13.827Z,66.45
2023-03-16T08:35:43.971Z,64.68
2023-03-16T08:38:14.825Z,64.38
2023-03-16T08:40:47.773Z,63.82
2023-03-16T08:43:17.572Z,63.42
2023-03-16T08:45:46.689Z,61.10
2023-03-16T08:48:16.665Z,60.93
2023-03-16T08:50:48.033Z,63.72
2023-03-16T08:53:17.363Z,62.04
2023-03-16T08:55:46.265Z,61.28
2023-03-16T08:58:15.360Z,60.65
2023-03-16T09:00:46.469Z,59.30
2023-03-16T09:03:15.529Z,59.00
2023-03-16T09:05:43.501Z,58.04
2023-03-16T09:08:12.629Z,57.17
2023-03-16T09:10:42.454Z,57.99
2023-03-16T09:13:10.448Z,57.68
2023-03-16T09:15:38.952Z,55.06
2023-03-16T09:18:07.005Z,56.45
2023-03-16T09:20:35.075Z,56.67
2023-03-16T09:23:03.694Z,55.54
2023-03-16T09:25:32.434Z,55.42
2023-03-16T09:28:01.739Z,54.25
2023-03-16T09:30:29.811Z,54.13
2023-03-16T09:32:57.913Z,53.95
2023-03-16T09:35:26.438Z,55.68
2023-03-16T09:38:09.593Z,55.82
2023-03-16T09:40:39.615Z,56.91
2023-03-16T09:43:33.582Z,56.65
2023-03-16T09:46:10.334Z,54.51
2023-03-16T09:48:41.063Z,54.53
2023-03-16T09:51:18.432Z,54.79
2023-03-16T09:53:48.239Z,54.98
2023-03-16T09:56:21.481Z,55.04
2023-03-16T09:58:51.026Z,54.64
2023-03-16T10:01:35.785Z,53.85
2023-03-16T10:04:16.381Z,54.57
2023-03-16T10:06:49.904Z,53.66
2023-03-16T10:09:31.965Z,53.94
2023-03-16T10:12:02.618Z,53.50
2023-03-16T10:14:42.004Z,52.97
2023-03-16T10:17:16.827Z,53.29
2023-03-16T10:19:51.270Z,53.58
2023-03-16T10:22:22.757Z,52.36
2023-03-16T10:25:02.372Z,52.87
2023-03-16T10:27:32.285Z,52.58
2023-03-16T10:30:03.588Z,52.19
2023-03-16T10:32:35.655Z,52.16
2023-03-16T10:35:12.521Z,51.45
2023-03-16T10:37:40.729Z,51.83
2023-03-16T10:40:12.428Z,52.39
2023-03-16T10:42:41.563Z,50.67
2023-03-16T10:45:24.367Z,50.26
2023-03-16T10:47:52.451Z,49.73
2023-03-16T10:50:25.831Z,49.86
2023-03-16T10:52:57.666Z,49.17
2023-03-16T10:55:30.677Z,49.49
2023-03-16T10:57:59.290Z,48.10
2023-03-16T11:00:30.951Z,47.62
2023-03-16T11:03:02.493Z,48.61
2023-03-16T11:05:33.442Z,47.62
2023-03-16T11:08:09.371Z,50.05
2023-03-16T11:10:49.400Z,48.68
2023-03-16T11:13:22.689Z,49.36
2023-03-16T11:15:56.101Z,48.11
2023-03-16T11:18:30.738Z,45.92
2023-03-16T11:21:01.327Z,48.75
2023-03-16T11:23:34.118Z,47.66
2023-03-16T11:26:05.208Z,46.70
2023-03-16T11:28:38.735Z,45.91
2023-03-16T11:31:21.088Z,46.04
2023-03-16T11:33:50.056Z,44.82
2023-03-16T11:36:37.675Z,44.95
2023-03-16T11:39:12.724Z,45.37
2023-03-16T11:41:51.721Z,44.05
2023-03-16T11:44:27.770Z,44.43
2023-03-16T11:47:07.541Z,44.44
2023-03-16T11:49:53.376Z,44.03
2023-03-16T11:52:32.542Z,43.98
2023-03-16T11:55:13.161Z,42.56
2023-03-16T11:57:54.020Z,41.83
2023-03-16T12:00:32.373Z,42.40
2023-03-16T12:03:22.936Z,42.25
2023-03-16T12:06:07.794Z,42.64
2023-03-16T12:09:16.402Z,42.14
2023-03-16T12:11:53.275Z,41.93
2023-03-16T12:14:25.651Z,42.30
2023-03-16T12:17:02.605Z,42.37
2023-03-16T12:19:41.362Z,42.77
2023-03-16T12:22:18.553Z,41.94
2023-03-16T12:24:48.177Z,41.49
2023-03-16T12:27:20.177Z,40.98
2023-03-16T12:30:00.284Z,41.75
2023-03-16T12:32:42.115Z,40.63
2023-03-16T12:35:26.152Z,40.33
2023-03-16T12:38:07.747Z,40.71
2023-03-16T12:40:42.554Z,41.37
2023-03-16T12:43:33.156Z,41.47
2023-03-16T12:46:09.332Z,42.16
2023-03-16T12:48:41.753Z,41.26
2023-03-16T12:51:13.350Z,42.12
2023-03-16T12:53:46.677Z,43.15
2023-03-16T12:56:17.632Z,42.89
2023-03-16T12:58:49.736Z,43.04
2023-03-16T13:01:21.611Z,42.92
2023-03-16T13:04:02.385Z,42.35
2023-03-16T13:06:36.712Z,42.36
2023-03-16T13:09:07.470Z,41.49
2023-03-16T13:11:53.479Z,42.54
2023-03-16T13:14:40.284Z,41.53
2023-03-16T13:17:25.277Z,41.79
2023-03-16T13:20:06.770Z,41.26
2023-03-16T13:22:46.585Z,40.37
2023-03-16T13:25:39.213Z,41.90
2023-03-16T13:28:11.929Z,41.63
2023-03-16T13:30:46.738Z,41.87
2023-03-16T13:33:20.671Z,43.20
2023-03-16T13:35:52.432Z,42.36
2023-03-16T13:38:27.321Z,42.93
2023-03-16T13:40:57.667Z,42.09
2023-03-16T13:43:28.893Z,42.18
2023-03-16T13:45:57.568Z,42.95
2023-03-16T13:48:26.649Z,43.09
2023-03-16T13:50:57.747Z,43.30
2023-03-16T13:53:29.560Z,42.74
2023-03-16T13:56:00.190Z,43.15
2023-03-16T13:58:35.202Z,42.58
2023-03-16T14:01:06.825Z,43.38
2023-03-16T14:03:37.510Z,43.12
2023-03-16T14:06:06.877Z,42.65
2023-03-16T14:11:57.762Z,42.20
2023-03-16T14:14:28.926Z,42.30
2023-03-16T14:17:05.369Z,42.95
2023-03-16T14:19:42.450Z,42.85
2023-03-16T14:22:19.440Z,42.03
2023-03-16T14:24:56.884Z,42.71
2023-03-16T14:27:32.876Z,43.93
2023-03-16T14:30:02.760Z,43.52
2023-03-16T14:32:32.501Z,43.67
2023-03-16T14:35:13.693Z,42.88
2023-03-16T14:37:42.371Z,42.76
2023-03-16T14:40:27.061Z,42.55
2023-03-16T14:42:57.554Z,42.72
2023-03-16T14:45:32.435Z,43.14
2023-03-16T14:48:06.436Z,43.63
2023-03-16T14:50:35.560Z,42.57
2023-03-16T14:53:05.864Z,42.71
2023-03-16T14:55:36.421Z,42.50
2023-03-16T14:58:05.655Z,41.76
2023-03-16T15:00:50.168Z,41.91
2023-03-16T15:03:23.861Z,41.17
2023-03-16T15:05:53.636Z,41.63
2023-03-16T15:08:27.255Z,41.96
2023-03-16T15:11:02.928Z,42.55
2023-03-16T15:13:52.806Z,42.60
2023-03-16T15:16:23.202Z,41.79
2023-03-16T15:18:51.925Z,42.46
2023-03-16T15:21:25.382Z,41.93
2023-03-16T15:23:53.362Z,42.09
2023-03-16T15:26:27.376Z,42.67
2023-03-16T15:28:55.949Z,43.20
2023-03-16T15:31:23.925Z,43.79
2023-03-16T15:33:51.888Z,42.68
2023-03-16T15:36:22.114Z,43.07
2023-03-16T15:38:51.679Z,43.91
2023-03-16T15:41:19.884Z,43.77
2023-03-16T15:43:49.235Z,42.81
2023-03-16T15:46:17.879Z,43.28
2023-03-16T15:48:45.734Z,43.31
2023-03-16T15:51:21.648Z,44.35
2023-03-16T15:53:52.594Z,43.78
2023-03-16T15:56:26.576Z,42.95
2023-03-16T15:58:56.589Z,43.50
2023-03-16T16:01:26.986Z,44.27
2023-03-16T16:03:56.207Z,44.60
2023-03-16T16:06:24.972Z,43.74
2023-03-16T16:08:52.828Z,44.73
2023-03-16T16:11:24.632Z,45.31
2023-03-16T16:13:56.860Z,46.43
2023-03-16T16:16:28.736Z,47.17
2023-03-16T16:18:57.329Z,47.53
2023-03-16T16:21:29.031Z,47.15
2023-03-16T16:24:01.238Z,47.87
2023-03-16T16:26:48.168Z,47.67
2023-03-16T16:29:22.234Z,47.48
2023-03-16T16:31:51.479Z,48.06
2023-03-16T16:34:21.839Z,47.70
2023-03-16T16:36:50.751Z,47.36
2023-03-16T16:39:18.645Z,47.16
2023-03-16T16:41:46.851Z,48.24
2023-03-16T16:44:18.380Z,47.58
2023-03-16T16:46:50.311Z,48.29
2023-03-16T16:49:20.572Z,48.04
2023-03-16T16:51:48.401Z,48.16
2023-03-16T16:54:19.029Z,47.98
2023-03-16T16:56:47.832Z,47.82
2023-03-16T16:59:18.695Z,47.90
2023-03-16T17:01:50.733Z,48.24
2023-03-16T17:04:19.967Z,48.24
2023-03-16T17:06:48.193Z,48.00
2023-03-16T17:09:16.271Z,48.28
2023-03-16T17:11:46.391Z,48.49
2023-03-16T17:14:17.974Z,47.86
2023-03-16T17:16:48.320Z,48.55
2023-03-16T17:19:21.591Z,48.80
2023-03-16T17:21:52.670Z,49.28
2023-03-16T17:24:20.989Z,48.56
2023-03-16T17:26:52.630Z,48.50
2023-03-16T17:29:24.331Z,48.48
2023-03-16T17:31:53.829Z,49.08
2023-03-16T17:34:24.061Z,49.24
2023-03-16T17:36:52.977Z,49.51
2023-03-16T17:39:23.266Z,49.77
2023-03-16T17:41:55.817Z,50.05
2023-03-16T17:44:27.911Z,49.72
2023-03-16T17:46:57.240Z,50.00
2023-03-16T17:49:28.359Z,50.30
2023-03-16T17:51:56.365Z,50.19
2023-03-16T17:54:24.268Z,50.34
2023-03-16T17:56:53.675Z,50.13
2023-03-16T17:59:23.805Z,50.01
2023-03-16T18:01:52.169Z,50.29
2023-03-16T18:04:24.023Z,50.83
2023-03-16T18:06:52.297Z,51.10
2023-03-16T18:09:21.399Z,51.13
2023-03-16T18:11:51.300Z,50.80
2023-03-16T18:14:26.453Z,51.00
2023-03-16T18:16:56.578Z,51.64
2023-03-16T18:19:26.269Z,52.01
2023-03-16T18:21:54.658Z,51.50
2023-03-16T18:24:26.624Z,51.61
2023-03-16T18:26:55.354Z,51.77
2023-03-16T18:29:24.089Z,51.87
2023-03-16T18:31:55.191Z,51.90
2023-03-16T18:34:32.082Z,52.09
2023-03-16T18:37:06.113Z,52.58
2023-03-16T18:39:34.739Z,52.00
2023-03-16T18:42:03.637Z,52.38
2023-03-16T18:44:33.603Z,52.55
2023-03-16T18:47:05.106Z,52.65
2023-03-16T18:49:36.815Z,52.30
2023-03-16T18:52:13.603Z,52.54
2023-03-16T18:54:45.625Z,52.66
2023-03-16T18:57:18.680Z,52.43
2023-03-16T18:59:47.156Z,53.26
2023-03-16T19:02:29.568Z,53.28
2023-03-16T19:05:01.586Z,53.16
2023-03-16T19:07:34.679Z,53.95
2023-03-16T19:10:18.974Z,53.50
2023-03-16T19:12:48.021Z,54.13
2023-03-16T19:15:22.130Z,54.14
2023-03-16T19:17:51.253Z,54.07
2023-03-16T19:20:22.959Z,55.28
2023-03-16T19:22:54.386Z,54.40
2023-03-16T19:25:31.133Z,54.80
2023-03-16T19:28:01.199Z,54.83
2023-03-16T19:30:31.406Z,55.27
2023-03-16T19:33:02.354Z,55.05
2023-03-16T19:35:50.669Z,55.19
2023-03-16T19:38:20.101Z,55.76
2023-03-16T19:40:50.131Z,55.55
2023-03-16T19:43:19.934Z,55.43
2023-03-16T19:45:49.475Z,55.87
2023-03-16T19:48:21.114Z,56.09
2023-03-16T19:50:51.402Z,56.01
2023-03-16T19:53:21.441Z,56.92
2023-03-16T19:55:51.830Z,57.33
2023-03-16T19:58:27.390Z,57.08
2023-03-16T20:00:55.480Z,57.74
2023-03-16T20:03:23.418Z,57.92
2023-03-16T20:05:52.617Z,57.93
2023-03-16T20:08:22.934Z,57.84
2023-03-16T20:10:51.873Z,58.49
2023-03-16T20:13:20.027Z,59.09
2023-03-16T20:15:48.153Z,58.99
2023-03-16T20:18:19.017Z,59.22
2023-03-16T20:20:47.375Z,59.81
2023-03-16T20:23:27.280Z,60.30
2023-03-16T20:26:00.065Z,60.37
2023-03-16T20:28:34.213Z,60.51
2023-03-16T20:31:02.235Z,60.18
2023-03-16T20:33:33.338Z,59.74
2023-03-16T20:36:01.311Z,60.07
2023-03-16T20:38:30.643Z,60.08
2023-03-16T20:40:58.823Z,60.42
2023-03-16T20:43:28.806Z,60.60
2023-03-16T20:45:59.314Z,61.45
2023-03-16T20:48:27.565Z,61.92
2023-03-16T20:50:57.216Z,62.08
2023-03-16T20:53:25.477Z,61.25
2023-03-16T20:55:56.505Z,62.23
2023-03-16T20:58:27.997Z,62.00
2023-03-16T21:00:58.468Z,62.35
2023-03-16T21:03:28.730Z,62.24
2023-03-16T21:05:59.641Z,63.33
2023-03-16T21:08:27.985Z,63.00
2023-03-16T21:10:59.807Z,63.47
2023-03-16T21:13:32.028Z,63.04
2023-03-16T21:16:01.923Z,62.79
2023-03-16T21:18:31.108Z,63.07
2023-03-16T21:20:59.045Z,63.11
2023-03-16T21:23:26.931Z,63.07
2023-03-16T21:25:58.713Z,63.16
2023-03-16T21:28:29.569Z,63.99
2023-03-16T21:30:59.117Z,63.58
2023-03-16T21:33:31.601Z,63.48
2023-03-16T21:36:00.334Z,63.68
2023-03-16T21:38:29.695Z,63.54
2023-03-16T21:40:59.583Z,64.76
2023-03-16T21:43:28.279Z,65.44
2023-03-16T21:45:56.980Z,65.67
2023-03-16T21:48:29.676Z,65.92
2023-03-16T21:50:58.141Z,66.42
2023-03-16T21:53:28.766Z,65.93
2023-03-16T21:55:59.005Z,66.59
2023-03-16T21:58:28.136Z,66.33
2023-03-16T22:00:57.160Z,66.06
2023-03-16T22:03:32.997Z,67.02
2023-03-16T22:06:06.951Z,66.34
2023-03-16T22:08:35.595Z,66.21
2023-03-16T22:11:10.332Z,66.20
2023-03-16T22:13:38.230Z,65.81
2023-03-16T22:16:15.048Z,66.48
2023-03-16T22:18:43.851Z,66.90
2023-03-16T22:21:26.269Z,67.25
2023-03-16T22:23:54.764Z,66.79
2023-03-16T22:26:24.697Z,67.16
2023-03-16T22:28:53.018Z,67.36
2023-03-16T22:31:27.620Z,67.75
2023-03-16T22:33:55.665Z,68.43
2023-03-16T22:36:23.844Z,68.13
2023-03-16T22:38:57.315Z,68.28
2023-03-16T22:41:26.875Z,68.70
2023-03-16T22:43:55.066Z,68.31
2023-03-16T22:46:25.775Z,68.68
2023-03-16T22:48:55.010Z,68.55
2023-03-16T22:51:26.998Z,68.69
2023-03-16T22:53:59.585Z,68.56
2023-03-16T22:56:32.001Z,68.18
2023-03-16T22:59:03.000Z,68.64
2023-03-16T23:01:34.639Z,68.17
2023-03-16T23:04:02.790Z,68.61
2023-03-16T23:06:33.542Z,68.74
2023-03-16T23:09:02.269Z,68.94
2023-03-16T23:11:36.418Z,69.15
2023-03-16T23:14:05.197Z,68.62
2023-03-16T23:16:37.193Z,68.35
2023-03-16T23:19:12.477Z,67.70
2023-03-16T23:21:46.640Z,67.83
2023-03-16T23:24:14.424Z,68.18
2023-03-16T23:26:43.748Z,68.06
2023-03-16T23:29:12.263Z,67.61
2023-03-16T23:31:40.299Z,67.02
2023-03-16T23:34:11.808Z,67.10
2023-03-16T23:36:39.745Z,67.29
2023-03-16T23:39:08.867Z,68.29
2023-03-16T23:41:40.745Z,68.06
2023-03-16T23:44:13.186Z,67.58
2023-03-16T23:46:41.340Z,67.08
2023-03-16T23:49:18.275Z,67.14
2023-03-16T23:51:47.248Z,67.86
2023-03-16T23:54:19.061Z,67.82
2023-03-16T23:56:46.974Z,67.90
2023-03-16T23:59:16.832Z,67.77
